CT202 YPPH-YGEL
Flight info
| Callsign | CT202 |
|---|---|
| Flight time | 0h 52m |
| Altitude | 20000 |
| Route | AVNEX Q20 ONGAR W14 GEL |
| Aircraft | DH8D/M-SDE2E3FGRY/H |
Departure
| Time | 2026-04-25 05:58 |
|---|---|
| Airport | Perth International Airport (YPPH) |
Arrival
| Time | 2026-04-25 06:51 |
|---|---|
| Airport | Geraldton Airport (YGEL) |
| Time | Latitude | Longitude | Altitude | Speed | Heading |
|---|---|---|---|---|---|
| 2026-04-25 05:29 | -31.94425 | 115.96930 | 83 ft | 0 kts | 194° |
| 2026-04-25 05:50 | -31.94419 | 115.96931 | 83 ft | 2 kts | 194° |
| 2026-04-25 05:50 | -31.94404 | 115.96936 | 83 ft | 2 kts | 194° |
| 2026-04-25 05:50 | -31.94390 | 115.96940 | 83 ft | 2 kts | 194° |
| 2026-04-25 05:51 | -31.94377 | 115.96947 | 83 ft | 1 kts | 237° |
| 2026-04-25 05:51 | -31.94375 | 115.96963 | 83 ft | 2 kts | 271° |
| 2026-04-25 05:51 | -31.94375 | 115.96974 | 83 ft | 2 kts | 265° |
| 2026-04-25 05:51 | -31.94373 | 115.96989 | 83 ft | 0 kts | 253° |
| 2026-04-25 05:52 | -31.94375 | 115.96970 | 83 ft | 4 kts | 271° |
| 2026-04-25 05:52 | -31.94369 | 115.96938 | 83 ft | 2 kts | 283° |
| 2026-04-25 05:52 | -31.94368 | 115.96934 | 83 ft | 0 kts | 283° |
| 2026-04-25 05:54 | -31.94367 | 115.96931 | 83 ft | 3 kts | 283° |
| 2026-04-25 05:55 | -31.94361 | 115.96906 | 83 ft | 8 kts | 285° |
| 2026-04-25 05:55 | -31.94341 | 115.96811 | 83 ft | 14 kts | 291° |
| 2026-04-25 05:55 | -31.94224 | 115.96800 | 83 ft | 22 kts | 14° |
| 2026-04-25 05:55 | -31.94061 | 115.96847 | 83 ft | 22 kts | 14° |
| 2026-04-25 05:56 | -31.93982 | 115.96808 | 83 ft | 13 kts | 255° |
| 2026-04-25 05:56 | -31.94028 | 115.96717 | 83 ft | 15 kts | 238° |
| 2026-04-25 05:56 | -31.94068 | 115.96637 | 83 ft | 0 kts | 237° |
| 2026-04-25 05:57 | -31.94101 | 115.96575 | 83 ft | 19 kts | 238° |
| 2026-04-25 05:57 | -31.94171 | 115.96468 | 83 ft | 16 kts | 207° |
| 2026-04-25 05:57 | -31.94195 | 115.96458 | 83 ft | 0 kts | 193° |
| 2026-04-25 05:58 | -31.94505 | 115.96368 | 83 ft | 88 kts | 194° |
| 2026-04-25 05:58 | -31.95332 | 115.96127 | 83 ft | 150 kts | 193° |
| 2026-04-25 05:58 | -31.96391 | 115.95779 | 382 ft | 160 kts | 197° |
| 2026-04-25 05:58 | -31.97471 | 115.95343 | 875 ft | 168 kts | 202° |
| 2026-04-25 05:59 | -31.98586 | 115.94813 | 1281 ft | 180 kts | 201° |
| 2026-04-25 05:59 | -31.99812 | 115.94319 | 1665 ft | 195 kts | 198° |
| 2026-04-25 05:59 | -32.01172 | 115.93881 | 2065 ft | 208 kts | 192° |
| 2026-04-25 05:59 | -32.02387 | 115.93067 | 2764 ft | 203 kts | 230° |
| 2026-04-25 06:00 | -32.02938 | 115.91556 | 3202 ft | 213 kts | 266° |
| 2026-04-25 06:00 | -32.02783 | 115.89812 | 3588 ft | 225 kts | 280° |
| 2026-04-25 06:00 | -32.02422 | 115.87940 | 4031 ft | 233 kts | 283° |
| 2026-04-25 06:00 | -32.02071 | 115.86112 | 4723 ft | 229 kts | 281° |
| 2026-04-25 06:01 | -32.01750 | 115.84277 | 5303 ft | 229 kts | 281° |
| 2026-04-25 06:01 | -32.01256 | 115.82514 | 5836 ft | 231 kts | 303° |
| 2026-04-25 06:01 | -31.99982 | 115.81383 | 6305 ft | 235 kts | 336° |
| 2026-04-25 06:01 | -31.98453 | 115.80725 | 6774 ft | 235 kts | 339° |
| 2026-04-25 06:02 | -31.96895 | 115.80095 | 7191 ft | 237 kts | 340° |
| 2026-04-25 06:02 | -31.95325 | 115.79479 | 7629 ft | 238 kts | 340° |
| 2026-04-25 06:02 | -31.93740 | 115.78867 | 8042 ft | 240 kts | 340° |
| 2026-04-25 06:02 | -31.92162 | 115.78262 | 8444 ft | 242 kts | 339° |
| 2026-04-25 06:03 | -31.90548 | 115.77648 | 8871 ft | 243 kts | 340° |
| 2026-04-25 06:03 | -31.88945 | 115.77042 | 9270 ft | 244 kts | 339° |
| 2026-04-25 06:03 | -31.87314 | 115.76430 | 9684 ft | 245 kts | 339° |
| 2026-04-25 06:03 | -31.85690 | 115.75822 | 10114 ft | 245 kts | 339° |
| 2026-04-25 06:04 | -31.84081 | 115.75221 | 10543 ft | 245 kts | 340° |
| 2026-04-25 06:04 | -31.82448 | 115.74612 | 10924 ft | 246 kts | 340° |
| 2026-04-25 06:04 | -31.80803 | 115.73998 | 11313 ft | 247 kts | 340° |
| 2026-04-25 06:04 | -31.79168 | 115.73389 | 11693 ft | 247 kts | 340° |
| 2026-04-25 06:05 | -31.77518 | 115.72776 | 12019 ft | 250 kts | 341° |
| 2026-04-25 06:05 | -31.75892 | 115.72172 | 12435 ft | 248 kts | 341° |
| 2026-04-25 06:05 | -31.74227 | 115.71554 | 12739 ft | 249 kts | 341° |
| 2026-04-25 06:05 | -31.72561 | 115.70936 | 13059 ft | 251 kts | 341° |
| 2026-04-25 06:06 | -31.70917 | 115.70325 | 13423 ft | 250 kts | 341° |
| 2026-04-25 06:06 | -31.69237 | 115.69703 | 13653 ft | 254 kts | 342° |
| 2026-04-25 06:06 | -31.67556 | 115.69080 | 14047 ft | 253 kts | 341° |
| 2026-04-25 06:06 | -31.65869 | 115.68456 | 14273 ft | 257 kts | 342° |
| 2026-04-25 06:07 | -31.64160 | 115.67822 | 14601 ft | 256 kts | 342° |
| 2026-04-25 06:07 | -31.62464 | 115.67196 | 14897 ft | 257 kts | 342° |
| 2026-04-25 06:07 | -31.60759 | 115.66565 | 15173 ft | 257 kts | 342° |
| 2026-04-25 06:07 | -31.59029 | 115.65926 | 15401 ft | 262 kts | 342° |
| 2026-04-25 06:08 | -31.57293 | 115.65284 | 15712 ft | 262 kts | 342° |
| 2026-04-25 06:08 | -31.55553 | 115.64642 | 16008 ft | 261 kts | 343° |
| 2026-04-25 06:08 | -31.53808 | 115.63997 | 16226 ft | 263 kts | 343° |
| 2026-04-25 06:08 | -31.52061 | 115.63353 | 16444 ft | 264 kts | 343° |
| 2026-04-25 06:09 | -31.50327 | 115.62713 | 16742 ft | 263 kts | 343° |
| 2026-04-25 06:09 | -31.48561 | 115.62062 | 16950 ft | 265 kts | 343° |
| 2026-04-25 06:09 | -31.46796 | 115.61411 | 17211 ft | 265 kts | 343° |
| 2026-04-25 06:09 | -31.45023 | 115.60758 | 17439 ft | 267 kts | 343° |
| 2026-04-25 06:10 | -31.43258 | 115.60109 | 17655 ft | 268 kts | 343° |
| 2026-04-25 06:10 | -31.41472 | 115.59451 | 17864 ft | 270 kts | 344° |
| 2026-04-25 06:10 | -31.39668 | 115.58787 | 18093 ft | 272 kts | 344° |
| 2026-04-25 06:10 | -31.37854 | 115.58121 | 18318 ft | 271 kts | 344° |
| 2026-04-25 06:11 | -31.36070 | 115.57464 | 18509 ft | 273 kts | 344° |
| 2026-04-25 06:11 | -31.34259 | 115.56799 | 18727 ft | 273 kts | 344° |
| 2026-04-25 06:11 | -31.32442 | 115.56131 | 18938 ft | 273 kts | 344° |
| 2026-04-25 06:11 | -31.30620 | 115.55462 | 19126 ft | 274 kts | 345° |
| 2026-04-25 06:12 | -31.28807 | 115.54797 | 19305 ft | 276 kts | 344° |
| 2026-04-25 06:12 | -31.26972 | 115.54124 | 19538 ft | 275 kts | 345° |
| 2026-04-25 06:12 | -31.25125 | 115.53446 | 19725 ft | 275 kts | 345° |
| 2026-04-25 06:12 | -31.23306 | 115.52779 | 19899 ft | 277 kts | 345° |
| 2026-04-25 06:13 | -31.21442 | 115.52097 | 20013 ft | 279 kts | 345° |
| 2026-04-25 06:13 | -31.19591 | 115.51419 | 20147 ft | 282 kts | 345° |
| 2026-04-25 06:13 | -31.17695 | 115.50726 | 20188 ft | 288 kts | 345° |
| 2026-04-25 06:14 | -31.13780 | 115.49294 | 20203 ft | 300 kts | 345° |
| 2026-04-25 06:14 | -31.11768 | 115.48559 | 20200 ft | 304 kts | 345° |
| 2026-04-25 06:14 | -31.09754 | 115.47823 | 20203 ft | 309 kts | 345° |
| 2026-04-25 06:14 | -31.07680 | 115.47066 | 20202 ft | 312 kts | 345° |
| 2026-04-25 06:15 | -31.05588 | 115.46300 | 20208 ft | 315 kts | 345° |
| 2026-04-25 06:15 | -31.03479 | 115.45531 | 20203 ft | 317 kts | 345° |
| 2026-04-25 06:15 | -31.01383 | 115.44766 | 20194 ft | 320 kts | 345° |
| 2026-04-25 06:15 | -30.99244 | 115.43986 | 20194 ft | 321 kts | 345° |
| 2026-04-25 06:16 | -30.97096 | 115.43202 | 20191 ft | 323 kts | 345° |
| 2026-04-25 06:16 | -30.94959 | 115.42424 | 20196 ft | 325 kts | 345° |
| 2026-04-25 06:16 | -30.92777 | 115.41629 | 20204 ft | 326 kts | 345° |
| 2026-04-25 06:16 | -30.90602 | 115.40838 | 20200 ft | 327 kts | 344° |
| 2026-04-25 06:17 | -30.88445 | 115.40053 | 20192 ft | 328 kts | 345° |
| 2026-04-25 06:17 | -30.86270 | 115.39262 | 20197 ft | 328 kts | 344° |
| 2026-04-25 06:17 | -30.84075 | 115.38464 | 20205 ft | 329 kts | 344° |
| 2026-04-25 06:17 | -30.81876 | 115.37666 | 20201 ft | 330 kts | 344° |
| 2026-04-25 06:18 | -30.79679 | 115.36867 | 20193 ft | 330 kts | 344° |
| 2026-04-25 06:18 | -30.77481 | 115.36070 | 20197 ft | 330 kts | 344° |
| 2026-04-25 06:18 | -30.75299 | 115.35278 | 20199 ft | 331 kts | 344° |
| 2026-04-25 06:18 | -30.73090 | 115.34478 | 20187 ft | 331 kts | 345° |
| 2026-04-25 06:19 | -30.70881 | 115.33678 | 20201 ft | 331 kts | 345° |
| 2026-04-25 06:19 | -30.68704 | 115.32889 | 20201 ft | 331 kts | 345° |
| 2026-04-25 06:19 | -30.66491 | 115.32088 | 20195 ft | 331 kts | 345° |
| 2026-04-25 06:19 | -30.64285 | 115.31290 | 20191 ft | 331 kts | 344° |
| 2026-04-25 06:20 | -30.62079 | 115.30492 | 20198 ft | 331 kts | 345° |
| 2026-04-25 06:20 | -30.59899 | 115.29703 | 20200 ft | 331 kts | 345° |
| 2026-04-25 06:20 | -30.57705 | 115.28912 | 20206 ft | 331 kts | 344° |
| 2026-04-25 06:20 | -30.55505 | 115.28117 | 20195 ft | 330 kts | 344° |
| 2026-04-25 06:21 | -30.53302 | 115.27322 | 20193 ft | 330 kts | 344° |
| 2026-04-25 06:21 | -30.51104 | 115.26529 | 20198 ft | 330 kts | 344° |
| 2026-04-25 06:21 | -30.48900 | 115.25734 | 20193 ft | 330 kts | 344° |
| 2026-04-25 06:21 | -30.46700 | 115.24941 | 20195 ft | 330 kts | 344° |
| 2026-04-25 06:22 | -30.44515 | 115.24164 | 20189 ft | 330 kts | 344° |
| 2026-04-25 06:22 | -30.42310 | 115.23383 | 20200 ft | 330 kts | 343° |
| 2026-04-25 06:22 | -30.40115 | 115.22589 | 20188 ft | 330 kts | 343° |
| 2026-04-25 06:22 | -30.37926 | 115.21797 | 20199 ft | 330 kts | 343° |
| 2026-04-25 06:23 | -30.35723 | 115.21001 | 20191 ft | 330 kts | 343° |
| 2026-04-25 06:23 | -30.33519 | 115.20207 | 20195 ft | 330 kts | 343° |
| 2026-04-25 06:23 | -30.31330 | 115.19418 | 20199 ft | 331 kts | 343° |
| 2026-04-25 06:23 | -30.29139 | 115.18630 | 20189 ft | 331 kts | 343° |
| 2026-04-25 06:24 | -30.26944 | 115.17841 | 20186 ft | 330 kts | 343° |
| 2026-04-25 06:24 | -30.24741 | 115.17049 | 20179 ft | 330 kts | 343° |
| 2026-04-25 06:24 | -30.22544 | 115.16260 | 20187 ft | 330 kts | 343° |
| 2026-04-25 06:24 | -30.20338 | 115.15470 | 20194 ft | 331 kts | 343° |
| 2026-04-25 06:25 | -30.18140 | 115.14682 | 20186 ft | 331 kts | 342° |
| 2026-04-25 06:25 | -30.15959 | 115.13901 | 20177 ft | 332 kts | 343° |
| 2026-04-25 06:25 | -30.13741 | 115.13107 | 20186 ft | 332 kts | 343° |
| 2026-04-25 06:25 | -30.11524 | 115.12314 | 20204 ft | 332 kts | 343° |
| 2026-04-25 06:26 | -30.09317 | 115.11525 | 20193 ft | 331 kts | 342° |
| 2026-04-25 06:26 | -30.07121 | 115.10740 | 20181 ft | 331 kts | 342° |
| 2026-04-25 06:26 | -30.04905 | 115.09948 | 20171 ft | 331 kts | 342° |
| 2026-04-25 06:26 | -30.02708 | 115.09164 | 20184 ft | 330 kts | 342° |
| 2026-04-25 06:27 | -30.00503 | 115.08376 | 20186 ft | 331 kts | 342° |
| 2026-04-25 06:27 | -29.98309 | 115.07594 | 20173 ft | 331 kts | 342° |
| 2026-04-25 06:27 | -29.96102 | 115.06807 | 20161 ft | 331 kts | 342° |
| 2026-04-25 06:27 | -29.93905 | 115.06023 | 20154 ft | 331 kts | 342° |
| 2026-04-25 06:28 | -29.91699 | 115.05238 | 20158 ft | 332 kts | 342° |
| 2026-04-25 06:28 | -29.89482 | 115.04449 | 20159 ft | 332 kts | 342° |
| 2026-04-25 06:28 | -29.87270 | 115.03661 | 20154 ft | 332 kts | 342° |
| 2026-04-25 06:28 | -29.85068 | 115.02879 | 20156 ft | 332 kts | 342° |
| 2026-04-25 06:29 | -29.82853 | 115.02090 | 20148 ft | 332 kts | 342° |
| 2026-04-25 06:29 | -29.80636 | 115.01302 | 20150 ft | 332 kts | 342° |
| 2026-04-25 06:29 | -29.78449 | 115.00526 | 20142 ft | 332 kts | 342° |
| 2026-04-25 06:29 | -29.76242 | 114.99742 | 20151 ft | 332 kts | 342° |
| 2026-04-25 06:30 | -29.74022 | 114.98954 | 20155 ft | 332 kts | 342° |
| 2026-04-25 06:30 | -29.71812 | 114.98171 | 20149 ft | 333 kts | 342° |
| 2026-04-25 06:30 | -29.69591 | 114.97383 | 20151 ft | 333 kts | 342° |
| 2026-04-25 06:30 | -29.67365 | 114.96594 | 20152 ft | 332 kts | 342° |
| 2026-04-25 06:31 | -29.65181 | 114.95821 | 20156 ft | 332 kts | 342° |
| 2026-04-25 06:31 | -29.62961 | 114.95034 | 20147 ft | 332 kts | 342° |
| 2026-04-25 06:31 | -29.60735 | 114.94246 | 20143 ft | 331 kts | 342° |
| 2026-04-25 06:31 | -29.58551 | 114.93473 | 20147 ft | 331 kts | 342° |
| 2026-04-25 06:32 | -29.56345 | 114.92693 | 20145 ft | 331 kts | 342° |
| 2026-04-25 06:32 | -29.54133 | 114.91912 | 20137 ft | 331 kts | 342° |
| 2026-04-25 06:32 | -29.51943 | 114.91138 | 20151 ft | 331 kts | 342° |
| 2026-04-25 06:32 | -29.49752 | 114.90365 | 20146 ft | 331 kts | 342° |
| 2026-04-25 06:33 | -29.47531 | 114.89580 | 20148 ft | 330 kts | 342° |
| 2026-04-25 06:33 | -29.45340 | 114.88808 | 19977 ft | 337 kts | 342° |
| 2026-04-25 06:33 | -29.43068 | 114.88007 | 19651 ft | 345 kts | 342° |
| 2026-04-25 06:33 | -29.40724 | 114.87181 | 19279 ft | 353 kts | 342° |
| 2026-04-25 06:34 | -29.38374 | 114.86353 | 18877 ft | 360 kts | 342° |
| 2026-04-25 06:34 | -29.35943 | 114.85498 | 18459 ft | 365 kts | 342° |
| 2026-04-25 06:34 | -29.33556 | 114.84657 | 18033 ft | 358 kts | 341° |
| 2026-04-25 06:34 | -29.31185 | 114.83820 | 17631 ft | 352 kts | 341° |
| 2026-04-25 06:35 | -29.28856 | 114.82999 | 17254 ft | 347 kts | 341° |
| 2026-04-25 06:35 | -29.26569 | 114.82193 | 16854 ft | 343 kts | 341° |
| 2026-04-25 06:35 | -29.24325 | 114.81403 | 16453 ft | 339 kts | 342° |
| 2026-04-25 06:35 | -29.22064 | 114.80608 | 16087 ft | 336 kts | 342° |
| 2026-04-25 06:36 | -29.19827 | 114.79852 | 15721 ft | 333 kts | 345° |
| 2026-04-25 06:36 | -29.17591 | 114.79300 | 15345 ft | 331 kts | 348° |
| 2026-04-25 06:36 | -29.15329 | 114.78793 | 14961 ft | 329 kts | 348° |
| 2026-04-25 06:36 | -29.13086 | 114.78292 | 14602 ft | 327 kts | 348° |
| 2026-04-25 06:37 | -29.10847 | 114.77791 | 14226 ft | 325 kts | 348° |
| 2026-04-25 06:37 | -29.08661 | 114.77300 | 13859 ft | 323 kts | 348° |
| 2026-04-25 06:37 | -29.06454 | 114.76804 | 13490 ft | 321 kts | 348° |
| 2026-04-25 06:37 | -29.04257 | 114.76310 | 13129 ft | 320 kts | 348° |
| 2026-04-25 06:38 | -29.02068 | 114.75817 | 12758 ft | 318 kts | 348° |
| 2026-04-25 06:38 | -28.99896 | 114.75328 | 12414 ft | 316 kts | 348° |
| 2026-04-25 06:38 | -28.97760 | 114.74847 | 12043 ft | 315 kts | 348° |
| 2026-04-25 06:38 | -28.95607 | 114.74361 | 11698 ft | 313 kts | 348° |
| 2026-04-25 06:39 | -28.93461 | 114.73878 | 11331 ft | 312 kts | 348° |
| 2026-04-25 06:39 | -28.91359 | 114.73405 | 10994 ft | 310 kts | 348° |
| 2026-04-25 06:39 | -28.89254 | 114.72931 | 10638 ft | 309 kts | 348° |
| 2026-04-25 06:39 | -28.87144 | 114.72456 | 10298 ft | 307 kts | 348° |
| 2026-04-25 06:40 | -28.85055 | 114.71986 | 9947 ft | 305 kts | 348° |
| 2026-04-25 06:40 | -28.82966 | 114.71516 | 9600 ft | 304 kts | 348° |
| 2026-04-25 06:40 | -28.80895 | 114.71049 | 9253 ft | 298 kts | 348° |
| 2026-04-25 06:40 | -28.78924 | 114.70569 | 8916 ft | 284 kts | 344° |
| 2026-04-25 06:41 | -28.77085 | 114.69899 | 8601 ft | 270 kts | 340° |
| 2026-04-25 06:41 | -28.75336 | 114.69206 | 8301 ft | 258 kts | 340° |
| 2026-04-25 06:41 | -28.73758 | 114.68390 | 7946 ft | 249 kts | 324° |
| 2026-04-25 06:41 | -28.72515 | 114.67063 | 7555 ft | 239 kts | 322° |
| 2026-04-25 06:42 | -28.71095 | 114.66181 | 7292 ft | 225 kts | 335° |
| 2026-04-25 06:42 | -28.69670 | 114.65493 | 6876 ft | 221 kts | 345° |
| 2026-04-25 06:42 | -28.68172 | 114.65170 | 6410 ft | 218 kts | 350° |
| 2026-04-25 06:42 | -28.66696 | 114.64867 | 5960 ft | 216 kts | 350° |
| 2026-04-25 06:43 | -28.65221 | 114.64562 | 5500 ft | 215 kts | 350° |
| 2026-04-25 06:43 | -28.63759 | 114.64267 | 5175 ft | 209 kts | 352° |
| 2026-04-25 06:43 | -28.62342 | 114.64374 | 4770 ft | 202 kts | 26° |
| 2026-04-25 06:43 | -28.61412 | 114.65480 | 4318 ft | 197 kts | 67° |
| 2026-04-25 06:44 | -28.61034 | 114.66984 | 3984 ft | 201 kts | 78° |
| 2026-04-25 06:44 | -28.60809 | 114.68568 | 3692 ft | 204 kts | 84° |
| 2026-04-25 06:44 | -28.60705 | 114.70172 | 3427 ft | 206 kts | 89° |
| 2026-04-25 06:44 | -28.60718 | 114.71801 | 3186 ft | 207 kts | 93° |
| 2026-04-25 06:45 | -28.60849 | 114.73432 | 2976 ft | 200 kts | 97° |
| 2026-04-25 06:45 | -28.61073 | 114.74921 | 2821 ft | 186 kts | 102° |
| 2026-04-25 06:45 | -28.61375 | 114.76322 | 2659 ft | 175 kts | 105° |
| 2026-04-25 06:45 | -28.61750 | 114.77594 | 2505 ft | 167 kts | 112° |
| 2026-04-25 06:46 | -28.62443 | 114.78568 | 2340 ft | 156 kts | 154° |
| 2026-04-25 06:46 | -28.63455 | 114.78519 | 2280 ft | 140 kts | 197° |
| 2026-04-25 06:46 | -28.64294 | 114.78082 | 2196 ft | 131 kts | 201° |
| 2026-04-25 06:46 | -28.65122 | 114.77622 | 2257 ft | 141 kts | 202° |
| 2026-04-25 06:47 | -28.66073 | 114.77094 | 2253 ft | 151 kts | 202° |
| 2026-04-25 06:47 | -28.66978 | 114.76562 | 2172 ft | 145 kts | 203° |
| 2026-04-25 06:47 | -28.67876 | 114.75983 | 2158 ft | 149 kts | 209° |
| 2026-04-25 06:47 | -28.68785 | 114.75349 | 2148 ft | 158 kts | 207° |
| 2026-04-25 06:48 | -28.69751 | 114.74722 | 2001 ft | 160 kts | 204° |
| 2026-04-25 06:48 | -28.70731 | 114.74155 | 1809 ft | 158 kts | 200° |
| 2026-04-25 06:48 | -28.71726 | 114.73676 | 1450 ft | 153 kts | 198° |
| 2026-04-25 06:48 | -28.72709 | 114.73262 | 1297 ft | 148 kts | 195° |
| 2026-04-25 06:49 | -28.73673 | 114.72910 | 1138 ft | 145 kts | 195° |
| 2026-04-25 06:49 | -28.74619 | 114.72550 | 1031 ft | 142 kts | 195° |
| 2026-04-25 06:49 | -28.75561 | 114.72201 | 757 ft | 142 kts | 195° |
| 2026-04-25 06:49 | -28.76539 | 114.71811 | 613 ft | 154 kts | 198° |
| 2026-04-25 06:50 | -28.77562 | 114.71433 | 384 ft | 149 kts | 195° |
| 2026-04-25 06:50 | -28.78485 | 114.71079 | 201 ft | 135 kts | 198° |
| 2026-04-25 06:50 | -28.79325 | 114.70765 | 131 ft | 114 kts | 199° |
| 2026-04-25 06:50 | -28.79916 | 114.70541 | 124 ft | 66 kts | 198° |
| 2026-04-25 06:51 | -28.80270 | 114.70409 | 122 ft | 46 kts | 198° |
| 2026-04-25 06:51 | -28.80523 | 114.70312 | 118 ft | 34 kts | 198° |
| 2026-04-25 06:51 | -28.80730 | 114.70258 | 114 ft | 31 kts | 180° |
| 2026-04-25 06:51 | -28.80746 | 114.70218 | 112 ft | 16 kts | 25° |
| 2026-04-25 06:52 | -28.80564 | 114.70295 | 117 ft | 38 kts | 18° |
| 2026-04-25 06:52 | -28.80255 | 114.70409 | 122 ft | 50 kts | 19° |
| 2026-04-25 06:52 | -28.79913 | 114.70541 | 124 ft | 56 kts | 18° |
| 2026-04-25 06:52 | -28.79658 | 114.70628 | 125 ft | 16 kts | 352° |
| 2026-04-25 06:53 | -28.79586 | 114.70455 | 128 ft | 18 kts | 289° |
| 2026-04-25 06:53 | -28.79668 | 114.70369 | 127 ft | 13 kts | 204° |
| 2026-04-25 06:53 | -28.79742 | 114.70338 | 127 ft | 7 kts | 226° |
| 2026-04-25 06:53 | -28.79720 | 114.70297 | 128 ft | 6 kts | 328° |
| 2026-04-25 06:54 | -28.79693 | 114.70278 | 128 ft | 0 kts | 328° |